| time (UTC) | temp F | wind direction | speed MPH | gust MPH | rain 1hr in | rain 24hr in | rain mn in | humidity % | barometer mb |
| 20260508141556 | 60 | 133 | 2.0 | 8.0 | 0.00 | 0.00 | 0.00 | 56 | 1018.0 |
| 20260508140014 | 59 | 360 | 1.0 | 6.0 | 0.00 | 0.00 | 0.00 | 58 | 1018.0 |
| 20260508134512 | 57 | 50 | 1.0 | 4.0 | 0.00 | 0.00 | 0.00 | 66 | 1018.2 |
| 20260508133039 | 54 | 9 | 1.0 | 5.0 | 0.00 | 0.00 | 0.00 | 72 | 1018.2 |
| 20260508131532 | 51 | 360 | 1.0 | 4.0 | 0.00 | 0.00 | 0.00 | 87 | 1018.1 |
| 20260508130025 | 48 | 360 | 1.0 | 3.0 | 0.00 | 0.00 | 0.00 | 91 | 1018.2 |
| 20260508124528 | 45 | 360 | 0.0 | 2.0 | 0.00 | 0.00 | 0.00 | 94 | 1018.4 |
| 20260508123023 | 43 | 82 | 0.0 | 0.0 | 0.00 | 0.00 | 0.00 | 94 | 1018.5 |
| 20260508121514 | 40 | 82 | 0.0 | 2.0 | 0.00 | 0.00 | 0.00 | 95 | 1018.3 |
| 20260508120006 | 38 | 360 | 0.0 | 1.0 | 0.00 | 0.00 | 0.00 | 94 | 1018.2 |
| 20260508114504 | 36 | 360 | 0.0 | 1.0 | 0.00 | 0.00 | 0.00 | 94 | 1018.3 |
| 20260508113105 | 35 | 360 | 0.0 | 0.0 | 0.00 | 0.00 | 0.00 | 93 | 1018.3 |
| 20260508111604 | 34 | 360 | 0.0 | 0.0 | 0.00 | 0.00 | 0.00 | 93 | 1018.1 |
| 20260508110104 | 34 | 360 | 0.0 | 0.0 | 0.00 | 0.00 | 0.00 | 92 | 1018.1 |
| 20260508104554 | 34 | 360 | 0.0 | 0.0 | 0.00 | 0.00 | 0.00 | 92 | 1017.8 |
| 20260508103057 | 34 | 360 | 0.0 | 0.0 | 0.00 | 0.00 | 0.00 | 92 | 1017.7 |
| 20260508101555 | 34 | 360 | 0.0 | 0.0 | 0.00 | 0.00 | 0.00 | 92 | 1017.8 |
| 20260508100104 | 35 | 360 | 0.0 | 0.0 | 0.00 | 0.00 | 0.00 | 92 | 1017.5 |
| 20260508094548 | 35 | 360 | 0.0 | 0.0 | 0.00 | 0.00 | 0.00 | 92 | 1017.6 |
| 20260508093046 | 35 | 360 | 0.0 | 0.0 | 0.00 | 0.00 | 0.00 | 92 | 1017.5 |
| 20260508091604 | 35 | 360 | 0.0 | 0.0 | 0.00 | 0.00 | 0.00 | 92 | 1017.5 |
| 20260508090043 | 35 | 360 | 0.0 | 0.0 | 0.00 | 0.00 | 0.00 | 92 | 1017.4 |
| 20260508084538 | 36 | 360 | 0.0 | 0.0 | 0.00 | 0.00 | 0.00 | 92 | 1017.4 |
| 20260508083035 | 36 | 360 | 0.0 | 0.0 | 0.00 | 0.00 | 0.00 | 91 | 1017.1 |
| 20260508081543 | 36 | 360 | 0.0 | 0.0 | 0.00 | 0.00 | 0.00 | 91 | 1017.2 |
| 20260508080002 | 36 | 360 | 0.0 | 0.0 | 0.00 | 0.00 | 0.00 | 91 | 1017.1 |
| 20260508074608 | 37 | 360 | 0.0 | 0.0 | 0.00 | 0.00 | 0.00 | 91 | 1017.1 |
| 20260508073057 | 37 | 360 | 0.0 | 0.0 | 0.00 | 0.00 | 0.00 | 91 | 1017.0 |
| 20260508071555 | 37 | 360 | 0.0 | 0.0 | 0.00 | 0.00 | 0.00 | 91 | 1016.9 |
| 20260508070053 | 37 | 360 | 0.0 | 0.0 | 0.00 | 0.00 | 0.00 | 91 | 1017.0 |
| 20260508064551 | 38 | 360 | 0.0 | 0.0 | 0.00 | 0.00 | 0.00 | 90 | 1016.9 |
| 20260508063054 | 38 | 360 | 0.0 | 0.0 | 0.00 | 0.00 | 0.00 | 90 | 1017.0 |
| 20260508061546 | 38 | 360 | 0.0 | 0.0 | 0.00 | 0.00 | 0.00 | 90 | 1017.1 |
| 20260508060057 | 38 | 360 | 0.0 | 0.0 | 0.00 | 0.00 | 0.00 | 90 | 1017.1 |
| 20260508054620 | 39 | 360 | 0.0 | 0.0 | 0.00 | 0.00 | 0.00 | 89 | 1017.1 |
| 20260508053049 | 39 | 360 | 0.0 | 0.0 | 0.00 | 0.00 | 0.00 | 89 | 1017.0 |
| 20260508051538 | 39 | 360 | 0.0 | 0.0 | 0.00 | 0.00 | 0.00 | 89 | 1017.0 |
| 20260508050037 | 40 | 360 | 0.0 | 0.0 | 0.00 | 0.00 | 0.00 | 88 | 1016.9 |
| 20260508044536 | 40 | 360 | 0.0 | 0.0 | 0.00 | 0.00 | 0.00 | 88 | 1017.0 |
| 20260508043036 | 40 | 360 | 0.0 | 0.0 | 0.00 | 0.00 | 0.00 | 88 | 1017.2 |
| 20260508041531 | 41 | 360 | 0.0 | 0.0 | 0.00 | 0.00 | 0.00 | 87 | 1017.1 |
| 20260508040033 | 41 | 360 | 0.0 | 0.0 | 0.00 | 0.00 | 0.00 | 86 | 1017.1 |
| 20260508034536 | 42 | 360 | 0.0 | 0.0 | 0.00 | 0.00 | 0.00 | 85 | 1017.0 |
| 20260508033031 | 42 | 360 | 0.0 | 0.0 | 0.00 | 0.00 | 0.00 | 85 | 1017.0 |
| 20260508031523 | 43 | 360 | 0.0 | 0.0 | 0.00 | 0.00 | 0.00 | 84 | 1017.1 |
| 20260508030020 | 43 | 360 | 0.0 | 0.0 | 0.00 | 0.00 | 0.00 | 83 | 1017.0 |
| 20260508024518 | 44 | 360 | 0.0 | 0.0 | 0.00 | 0.00 | 0.00 | 82 | 1016.9 |
| 20260508023014 | 45 | 360 | 0.0 | 0.0 | 0.00 | 0.00 | 0.00 | 81 | 1016.6 |
| 20260508021509 | 45 | 360 | 0.0 | 0.0 | 0.00 | 0.00 | 0.00 | 79 | 1016.3 |
| 20260508020005 | 46 | 360 | 0.0 | 0.0 | 0.00 | 0.00 | 0.00 | 77 | 1016.1 |
| 20260508014502 | 47 | 360 | 0.0 | 0.0 | 0.00 | 0.00 | 0.00 | 75 | 1016.0 |
| 20260508013101 | 48 | 360 | 0.0 | 0.0 | 0.00 | 0.00 | 0.00 | 73 | 1015.7 |
| 20260508011601 | 50 | 360 | 0.0 | 0.0 | 0.00 | 0.00 | 0.00 | 71 | 1015.5 |
| 20260508010054 | 51 | 360 | 0.0 | 0.0 | 0.00 | 0.00 | 0.00 | 68 | 1015.3 |
| 20260508004556 | 52 | 360 | 0.0 | 0.0 | 0.00 | 0.00 | 0.00 | 65 | 1015.3 |
| 20260508003054 | 54 | 360 | 0.0 | 1.0 | 0.00 | 0.00 | 0.00 | 63 | 1015.1 |
| 20260508001551 | 56 | 360 | 0.0 | 1.0 | 0.00 | 0.00 | 0.00 | 61 | 1014.8 |
| 20260508000050 | 57 | 360 | 0.0 | 2.0 | 0.00 | 0.00 | 0.00 | 56 | 1014.5 |
| 20260507234550 | 58 | 159 | 0.0 | 1.0 | 0.00 | 0.00 | 0.00 | 51 | 1014.3 |
| 20260507233050 | 59 | 360 | 0.0 | 2.0 | 0.00 | 0.00 | 0.00 | 45 | 1014.2 |
| 20260507231548 | 60 | 360 | 1.0 | 4.0 | 0.00 | 0.00 | 0.00 | 42 | 1014.0 |
| 20260507230045 | 61 | 360 | 1.0 | 3.0 | 0.00 | 0.00 | 0.00 | 42 | 1014.1 |
| 20260507224547 | 61 | 360 | 1.0 | 10.0 | 0.00 | 0.00 | 0.00 | 41 | 1014.1 |
| 20260507223045 | 62 | 360 | 0.0 | 5.0 | 0.00 | 0.00 | 0.00 | 41 | 1014.0 |
| 20260507221518 | 63 | 360 | 1.0 | 6.0 | 0.00 | 0.00 | 0.00 | 41 | 1013.8 |
| 20260507220013 | 63 | 360 | 2.0 | 8.0 | 0.00 | 0.00 | 0.00 | 42 | 1013.7 |
| 20260507214518 | 63 | 129 | 1.0 | 6.0 | 0.00 | 0.00 | 0.00 | 40 | 1013.4 |
| 20260507213010 | 64 | 46 | 2.0 | 9.0 | 0.00 | 0.00 | 0.00 | 43 | 1013.4 |
| 20260507211510 | 65 | 360 | 2.0 | 9.0 | 0.00 | 0.00 | 0.00 | 41 | 1013.2 |
| 20260507210009 | 66 | 360 | 2.0 | 11.0 | 0.00 | 0.00 | 0.00 | 40 | 1013.2 |
| 20260507204506 | 66 | 360 | 5.0 | 18.0 | 0.00 | 0.00 | 0.00 | 41 | 1013.0 |
| 20260507203006 | 67 | 186 | 2.0 | 11.0 | 0.00 | 0.00 | 0.00 | 39 | 1013.1 |
| 20260507201504 | 67 | 113 | 4.0 | 10.0 | 0.00 | 0.00 | 0.00 | 41 | 1013.0 |
| 20260507200004 | 67 | 360 | 2.0 | 10.0 | 0.00 | 0.00 | 0.00 | 41 | 1013.2 |
| 20260507194532 | 67 | 360 | 2.0 | 10.0 | 0.00 | 0.00 | 0.00 | 45 | 1013.2 |
| 20260507193034 | 67 | 360 | 4.0 | 10.0 | 0.00 | 0.00 | 0.00 | 41 | 1013.3 |
| 20260507191559 | 65 | 360 | 3.0 | 11.0 | 0.00 | 0.00 | 0.00 | 47 | 1013.4 |
| 20260507190056 | 65 | 360 | 2.0 | 9.0 | 0.00 | 0.00 | 0.00 | 48 | 1013.6 |
| 20260507184525 | 64 | 360 | 4.0 | 12.0 | 0.00 | 0.00 | 0.00 | 46 | 1013.8 |
| 20260507183039 | 65 | 360 | 4.0 | 14.0 | 0.00 | 0.00 | 0.00 | 44 | 1014.0 |
| 20260507181553 | 65 | 360 | 2.0 | 10.0 | 0.00 | 0.00 | 0.00 | 47 | 1014.1 |
| 20260507180058 | 66 | 360 | 3.0 | 10.0 | 0.00 | 0.01 | 0.00 | 45 | 1014.1 |
| 20260507174602 | 66 | 360 | 3.0 | 12.0 | 0.00 | 0.01 | 0.00 | 47 | 1014.2 |
| 20260507173048 | 65 | 360 | 2.0 | 12.0 | 0.00 | 0.01 | 0.00 | 50 | 1014.3 |
| 20260507171559 | 63 | 360 | 2.0 | 11.0 | 0.00 | 0.01 | 0.00 | 54 | 1014.4 |
| 20260507170042 | 65 | 193 | 2.0 | 8.0 | 0.00 | 0.01 | 0.00 | 50 | 1014.5 |
| 20260507164545 | 63 | 360 | 2.0 | 11.0 | 0.00 | 0.01 | 0.00 | 54 | 1014.7 |
| 20260507163043 | 62 | 360 | 1.0 | 13.0 | 0.00 | 0.01 | 0.00 | 55 | 1014.9 |
| 20260507161540 | 61 | 22 | 3.0 | 8.0 | 0.00 | 0.01 | 0.00 | 57 | 1015.0 |
| 20260507160043 | 61 | 360 | 4.0 | 7.0 | 0.00 | 0.01 | 0.00 | 55 | 1015.1 |
| 20260507154531 | 60 | 360 | 0.0 | 4.0 | 0.00 | 0.01 | 0.00 | 56 | 1015.2 |
| 20260507153030 | 60 | 360 | 3.0 | 6.0 | 0.00 | 0.01 | 0.00 | 57 | 1015.2 |
| 20260507151528 | 60 | 360 | 1.0 | 5.0 | 0.00 | 0.01 | 0.00 | 59 | 1015.1 |
| 20260507150028 | 61 | 360 | 1.0 | 5.0 | 0.00 | 0.02 | 0.00 | 61 | 1015.0 |
| 20260507144529 | 60 | 360 | 1.0 | 6.0 | 0.00 | 0.02 | 0.00 | 58 | 1015.4 |
| 20260507143018 | 59 | 360 | 3.0 | 5.0 | 0.00 | 0.02 | 0.00 | 61 | 1015.3 |